Terminal Aerodrome Forecast
Issued by NWS Sioux Falls, SD

Home | Current Version | Previous Version | Graphics & Text | Print | Product List | Glossary On
Versions: 1 2 3 4 5 6 7 8 9 10 11 12 13 14 15 16
559
FTUS43 KFSD 281556 AAB
TAFHON
TAF AMD
KHON 281556Z 2816/2912 34011KT 4SM SHRA BR OVC009
     FM281800 34011KT 4SM SHRA BR OVC013
     FM282200 35007KT P6SM OVC022
     FM290300 28004KT P6SM SCT120=

USA.gov is the U.S. government's official web portal to all federal, state and local government web resources and services.